PH-0135 weather

Megaworld Heliport
Makati (Manila), Philippines

Public forecast

Using degrees Celsius for public forecast. Weather courtesy of forecast.io.

Closest aviation weather report (METAR) to Megaworld Heliport

Closest report is Ninoy Aquino International Airport, 3.2 nm (5.8 km) S. Retrieved 2019/11/12 23:00 UTC (10 minutes ago):

RPLL 122300Z 30003KT 240V360 9999 FEW023 SCT100 BKN250 27/20 Q1011 NOSIG RMK A2985

Closest aviation forecast (TAF) to Megaworld Heliport

Closest forecast is Ninoy Aquino International Airport, 3.2 nm (5.8 km) S. Retrieved 2019/11/12 18:00 UTC (5 hours ago):

TAF RPLL 121700Z 1218/1324 06005KT 9999 FEW025 BKN100 TX29/1306Z TN25/1221Z TEMPO 1306/1312 29004KT SCT023 BKN090